createdAt,value
2018-11-01T00:02:22.373Z,15.62
2018-11-01T00:04:48.434Z,15.55
2018-11-01T00:07:14.416Z,15.50
2018-11-01T00:09:40.472Z,15.50
2018-11-01T00:12:06.479Z,15.50
2018-11-01T00:14:32.487Z,15.44
2018-11-01T00:16:58.473Z,15.50
2018-11-01T00:19:24.468Z,15.54
2018-11-01T00:21:50.452Z,15.66
2018-11-01T00:24:16.480Z,15.60
2018-11-01T00:26:42.467Z,15.64
2018-11-01T00:29:08.449Z,15.58
2018-11-01T00:31:34.477Z,15.52
2018-11-01T00:34:00.562Z,15.41
2018-11-01T00:36:26.528Z,15.30
2018-11-01T00:38:52.519Z,15.27
2018-11-01T00:41:18.489Z,15.28
2018-11-01T00:43:44.473Z,15.41
2018-11-01T00:46:10.464Z,15.58
2018-11-01T00:48:36.442Z,15.68
2018-11-01T00:51:02.420Z,15.72
2018-11-01T00:53:28.411Z,15.70
2018-11-01T00:55:54.423Z,15.64
2018-11-01T00:58:20.404Z,15.67
2018-11-01T01:00:46.367Z,15.60
2018-11-01T01:03:12.389Z,15.44
2018-11-01T01:05:38.332Z,15.41
2018-11-01T01:08:04.332Z,15.43
2018-11-01T01:10:30.314Z,15.42
2018-11-01T01:12:56.271Z,15.35
2018-11-01T01:15:22.239Z,15.37
2018-11-01T01:17:48.187Z,15.44
2018-11-01T01:20:14.176Z,15.28
2018-11-01T01:22:40.157Z,15.17
2018-11-01T01:25:06.141Z,15.05
2018-11-01T01:27:32.101Z,15.10
2018-11-01T01:29:58.103Z,15.12
2018-11-01T01:32:24.043Z,15.24
2018-11-01T01:34:50.041Z,15.26
2018-11-01T01:37:15.992Z,15.29
2018-11-01T01:39:41.985Z,15.27
2018-11-01T01:42:07.929Z,15.22
2018-11-01T01:44:33.910Z,15.17
2018-11-01T01:46:59.851Z,15.07
2018-11-01T01:49:25.820Z,14.98
2018-11-01T01:51:51.798Z,15.06
2018-11-01T01:54:17.734Z,15.07
2018-11-01T01:56:43.733Z,15.05
2018-11-01T01:59:09.707Z,15.04
2018-11-01T02:01:35.789Z,15.09
2018-11-01T02:04:01.747Z,15.10
2018-11-01T02:06:27.741Z,15.06
2018-11-01T02:08:53.692Z,14.97
2018-11-01T02:11:19.667Z,14.89
2018-11-01T02:13:45.661Z,14.77
2018-11-01T02:16:11.677Z,14.76
2018-11-01T02:18:37.684Z,14.85
2018-11-01T02:21:03.651Z,14.82
2018-11-01T02:23:29.644Z,14.86
2018-11-01T02:25:55.611Z,14.91
2018-11-01T02:28:21.574Z,14.96
2018-11-01T02:30:47.818Z,15.06
2018-11-01T02:33:13.809Z,15.10
2018-11-01T02:35:39.795Z,15.04
2018-11-01T02:38:05.847Z,14.92
2018-11-01T02:40:31.807Z,14.86
2018-11-01T02:42:57.759Z,14.92
2018-11-01T02:45:23.733Z,14.78
2018-11-01T02:47:49.689Z,14.61
2018-11-01T02:50:15.639Z,14.64
2018-11-01T02:52:41.656Z,14.60
2018-11-01T02:55:07.656Z,14.60
2018-11-01T02:57:33.647Z,14.56
2018-11-01T02:59:59.686Z,14.47
2018-11-01T03:02:25.657Z,14.38
2018-11-01T03:04:51.651Z,14.40
2018-11-01T03:07:17.639Z,14.51
2018-11-01T03:09:43.652Z,14.45
2018-11-01T03:12:09.609Z,14.55
2018-11-01T03:14:35.637Z,14.64
2018-11-01T03:17:01.708Z,14.77
2018-11-01T03:19:27.678Z,14.82
2018-11-01T03:21:53.658Z,14.77
2018-11-01T03:24:19.631Z,14.75
2018-11-01T03:26:46.158Z,14.72
2018-11-01T03:29:12.153Z,14.62
2018-11-01T03:31:38.193Z,14.57
2018-11-01T03:34:04.181Z,14.56
2018-11-01T03:36:30.142Z,14.63
2018-11-01T03:38:56.122Z,14.62
2018-11-01T03:41:22.096Z,14.61
2018-11-01T03:43:48.053Z,14.78
2018-11-01T03:46:14.038Z,14.89
2018-11-01T03:48:39.983Z,14.88
2018-11-01T03:51:05.992Z,14.96
2018-11-01T03:53:32.046Z,14.92
2018-11-01T03:55:57.970Z,14.87
2018-11-01T04:00:59.065Z,14.65
2018-11-01T04:03:25.085Z,14.61
2018-11-01T04:05:51.068Z,14.66
2018-11-01T04:08:17.026Z,14.73
2018-11-01T04:10:42.997Z,14.71
2018-11-01T04:13:08.947Z,14.77
2018-11-01T04:15:34.951Z,14.60
2018-11-01T04:18:00.951Z,14.63
2018-11-01T04:20:26.962Z,14.67
2018-11-01T04:22:52.950Z,14.65
2018-11-01T04:25:18.882Z,14.69
2018-11-01T04:27:44.852Z,14.74
2018-11-01T04:30:10.811Z,14.65
2018-11-01T04:32:36.813Z,14.63
2018-11-01T04:35:02.803Z,14.69
2018-11-01T04:37:28.796Z,14.64
2018-11-01T04:39:54.758Z,14.66
2018-11-01T04:42:20.725Z,14.54
2018-11-01T04:44:46.729Z,14.52
2018-11-01T04:47:12.790Z,14.38
2018-11-01T04:49:38.745Z,14.36
2018-11-01T04:52:04.737Z,14.41
2018-11-01T04:54:30.708Z,14.44
2018-11-01T04:56:56.738Z,14.47
2018-11-01T04:59:22.750Z,14.42
2018-11-01T05:01:48.744Z,14.57
2018-11-01T05:04:14.715Z,14.64
2018-11-01T05:06:40.715Z,14.73
2018-11-01T05:09:06.685Z,14.69
2018-11-01T05:11:32.672Z,14.73
2018-11-01T05:13:58.624Z,14.76
2018-11-01T05:16:24.623Z,14.77
2018-11-01T05:18:50.625Z,14.73
2018-11-01T05:21:16.608Z,14.75
2018-11-01T05:23:42.582Z,14.72
2018-11-01T05:26:08.580Z,14.71
2018-11-01T05:28:34.538Z,14.71
2018-11-01T05:31:00.562Z,14.70
2018-11-01T05:33:26.577Z,14.73
2018-11-01T05:35:52.597Z,14.70
2018-11-01T05:38:18.621Z,14.73
2018-11-01T05:40:44.649Z,14.77
2018-11-01T05:43:10.674Z,14.93
2018-11-01T05:45:36.658Z,14.99
2018-11-01T05:48:02.656Z,14.89
2018-11-01T05:50:28.685Z,14.89
2018-11-01T05:52:54.727Z,14.91
2018-11-01T05:55:20.676Z,14.94
2018-11-01T05:57:46.626Z,14.92
2018-11-01T06:00:12.584Z,14.93
2018-11-01T06:02:38.591Z,14.94
2018-11-01T06:05:04.581Z,14.88
2018-11-01T06:07:30.589Z,14.96
2018-11-01T06:09:56.579Z,14.99
2018-11-01T06:12:22.605Z,15.10
2018-11-01T06:14:48.592Z,15.21
2018-11-01T06:17:14.558Z,15.32
2018-11-01T06:19:40.515Z,15.39
2018-11-01T06:22:06.529Z,15.48
2018-11-01T06:24:32.534Z,15.52
2018-11-01T06:26:58.552Z,15.66
2018-11-01T06:29:24.522Z,15.77
2018-11-01T06:31:50.496Z,16.02
2018-11-01T06:34:16.448Z,16.28
2018-11-01T06:36:42.497Z,16.41
2018-11-01T06:39:08.527Z,16.51
2018-11-01T06:41:34.491Z,16.50
2018-11-01T06:44:00.474Z,16.58
2018-11-01T06:46:26.424Z,16.62
2018-11-01T06:48:52.435Z,16.60
2018-11-01T06:51:18.447Z,16.50
2018-11-01T06:53:44.485Z,16.43
2018-11-01T06:56:10.547Z,16.46
2018-11-01T06:58:36.704Z,16.47
2018-11-01T07:01:02.532Z,16.54
2018-11-01T07:03:28.508Z,16.55
2018-11-01T07:05:54.531Z,16.54
2018-11-01T07:08:20.571Z,16.57
2018-11-01T07:10:46.572Z,16.63
2018-11-01T07:13:12.584Z,16.81
2018-11-01T07:15:38.556Z,16.96
2018-11-01T07:18:04.539Z,17.02
2018-11-01T07:20:30.502Z,17.05
2018-11-01T07:22:56.510Z,17.09
2018-11-01T07:25:22.614Z,17.22
2018-11-01T07:27:48.497Z,17.35
2018-11-01T07:30:14.491Z,17.56
2018-11-01T07:32:40.598Z,17.67
2018-11-01T07:35:06.494Z,17.78
2018-11-01T07:37:32.454Z,17.76
2018-11-01T07:39:58.485Z,17.77
2018-11-01T07:42:24.459Z,17.84
2018-11-01T07:44:50.500Z,17.89
2018-11-01T07:47:17.368Z,17.85
2018-11-01T07:49:43.351Z,17.99
2018-11-01T07:52:09.332Z,18.20
2018-11-01T07:54:35.681Z,18.39
2018-11-01T07:57:01.657Z,18.59
2018-11-01T07:59:27.661Z,18.78
2018-11-01T08:01:53.616Z,18.94
2018-11-01T08:04:19.596Z,19.02
2018-11-01T08:06:45.564Z,19.07
2018-11-01T08:09:11.535Z,19.16
2018-11-01T08:11:38.534Z,19.25
2018-11-01T08:14:04.465Z,19.33
2018-11-01T08:16:30.468Z,19.43
2018-11-01T08:18:56.453Z,19.45
2018-11-01T08:21:22.559Z,19.56
2018-11-01T08:23:48.428Z,19.49
2018-11-01T08:26:14.381Z,19.54
2018-11-01T08:28:40.366Z,19.59
2018-11-01T08:38:40.714Z,19.62
2018-11-01T08:41:06.746Z,19.70
2018-11-01T08:43:32.757Z,19.82
2018-11-01T08:45:58.730Z,19.87
2018-11-01T08:48:24.716Z,19.90
2018-11-01T08:50:50.707Z,19.88
2018-11-01T08:53:16.701Z,19.88
2018-11-01T08:55:42.705Z,19.90
2018-11-01T08:58:08.679Z,19.93
2018-11-01T09:00:34.636Z,19.89
2018-11-01T09:03:00.807Z,19.99
2018-11-01T09:05:26.820Z,20.02
2018-11-01T09:07:52.871Z,20.00
2018-11-01T09:10:18.911Z,20.01
2018-11-01T09:12:44.955Z,20.12
2018-11-01T09:15:10.929Z,20.25
2018-11-01T09:17:36.896Z,20.33
2018-11-01T09:20:02.928Z,20.26
2018-11-01T09:22:28.901Z,20.29
2018-11-01T09:24:54.949Z,20.28
2018-11-01T09:27:21.015Z,20.20
2018-11-01T09:29:46.954Z,20.17
2018-11-01T09:32:12.925Z,20.14
2018-11-01T09:34:38.909Z,20.02
2018-11-01T09:37:04.958Z,19.90
2018-11-01T09:39:30.932Z,19.76
2018-11-01T09:41:56.940Z,19.82
2018-11-01T09:44:22.939Z,19.83
2018-11-01T09:46:49.271Z,19.85
2018-11-01T09:49:14.919Z,19.88
2018-11-01T09:51:40.940Z,19.90
2018-11-01T09:54:06.900Z,19.99
2018-11-01T09:56:33.701Z,20.13
2018-11-01T10:11:35.895Z,20.31
2018-11-01T10:14:01.943Z,20.35
2018-11-01T10:16:28.104Z,20.44
2018-11-01T10:21:25.368Z,20.50
2018-11-01T10:23:51.338Z,20.58
2018-11-01T10:26:17.321Z,20.53
2018-11-01T10:28:43.303Z,20.38
2018-11-01T10:31:09.329Z,20.35
2018-11-01T10:33:35.289Z,20.37
2018-11-01T10:36:01.312Z,20.42
2018-11-01T10:38:27.272Z,20.44
2018-11-01T10:40:53.326Z,20.51
2018-11-01T10:43:19.300Z,20.54
2018-11-01T10:45:45.253Z,20.51
2018-11-01T10:48:11.217Z,20.49
2018-11-01T10:50:37.180Z,20.49
2018-11-01T10:53:03.166Z,20.56
2018-11-01T10:55:29.113Z,20.53
2018-11-01T10:57:55.117Z,20.45
2018-11-01T11:00:21.261Z,20.47
2018-11-01T11:02:51.653Z,20.59
2018-11-01T11:05:17.629Z,20.65
2018-11-01T11:07:43.629Z,20.74
2018-11-01T11:10:09.595Z,20.72
2018-11-01T11:12:35.574Z,20.62
2018-11-01T11:15:01.535Z,20.55
2018-11-01T11:17:27.595Z,20.52
2018-11-01T11:19:53.651Z,20.61
2018-11-01T11:22:20.235Z,20.66
2018-11-01T11:24:46.358Z,20.65
2018-11-01T11:27:12.354Z,20.66
2018-11-01T11:29:42.912Z,20.70
2018-11-01T11:32:08.893Z,20.75
2018-11-01T11:34:34.842Z,20.86
2018-11-01T11:37:00.809Z,20.70
2018-11-01T11:39:26.816Z,20.41
2018-11-01T11:41:52.842Z,20.33
2018-11-01T11:44:18.821Z,20.42
2018-11-01T11:46:44.841Z,20.45
2018-11-01T11:49:10.786Z,20.50
2018-11-01T11:51:36.932Z,20.62
2018-11-01T11:54:02.843Z,20.61
2018-11-01T11:56:28.823Z,20.67
2018-11-01T11:58:54.809Z,20.65
2018-11-01T12:01:20.757Z,20.72
2018-11-01T12:03:46.735Z,20.75
2018-11-01T12:06:12.828Z,20.73
2018-11-01T12:08:38.652Z,20.70
2018-11-01T12:11:08.557Z,20.74
2018-11-01T12:13:34.558Z,20.79
2018-11-01T12:16:00.526Z,20.82
2018-11-01T12:18:26.501Z,20.80
2018-11-01T12:20:52.453Z,20.82
2018-11-01T12:23:18.428Z,20.83
2018-11-01T12:25:45.223Z,20.85
2018-11-01T12:28:11.237Z,20.77
2018-11-01T12:30:37.195Z,20.70
2018-11-01T12:33:03.175Z,20.61
2018-11-01T12:35:29.189Z,20.51
2018-11-01T12:37:55.193Z,20.51
2018-11-01T12:40:21.137Z,20.26
2018-11-01T12:42:47.134Z,20.08
2018-11-01T12:45:13.162Z,20.08
2018-11-01T12:47:39.208Z,20.07
2018-11-01T12:50:09.156Z,20.31
2018-11-01T12:52:34.944Z,20.42
2018-11-01T12:55:00.989Z,20.63
2018-11-01T12:57:27.033Z,20.72
2018-11-01T12:59:52.990Z,20.74
2018-11-01T13:02:19.029Z,20.74
2018-11-01T13:04:45.015Z,20.74
2018-11-01T13:07:11.017Z,20.80
2018-11-01T13:09:37.577Z,20.82
2018-11-01T13:12:03.623Z,20.80
2018-11-01T13:14:29.582Z,20.75
2018-11-01T13:16:55.597Z,20.75
2018-11-01T13:19:21.574Z,20.70
2018-11-01T13:21:47.537Z,20.67
2018-11-01T13:24:13.589Z,20.64
2018-11-01T13:26:39.626Z,20.66
2018-11-01T13:29:05.634Z,20.68
2018-11-01T13:31:31.597Z,20.73
2018-11-01T13:33:57.592Z,20.77
2018-11-01T13:36:23.562Z,20.80
2018-11-01T13:38:50.295Z,20.75
2018-11-01T13:41:16.612Z,20.83
2018-11-01T13:43:42.301Z,20.93
2018-11-01T13:46:08.363Z,21.02
2018-11-01T13:48:34.381Z,21.03
2018-11-01T13:51:00.407Z,21.10
2018-11-01T13:53:26.424Z,21.09
2018-11-01T13:55:52.453Z,21.13
2018-11-01T13:58:18.467Z,21.17
2018-11-01T14:00:44.468Z,21.16
2018-11-01T14:03:10.470Z,21.13
2018-11-01T14:05:36.522Z,21.08
2018-11-01T14:08:02.598Z,21.09
2018-11-01T14:10:28.557Z,21.08
2018-11-01T14:12:54.551Z,21.04
2018-11-01T14:15:20.845Z,21.00
2018-11-01T14:17:46.509Z,20.96
2018-11-01T14:20:12.602Z,20.95
2018-11-01T14:22:38.668Z,20.99
2018-11-01T14:25:04.746Z,21.04
2018-11-01T14:27:30.886Z,21.09
2018-11-01T14:29:56.889Z,21.14
2018-11-01T14:32:22.869Z,21.15
2018-11-01T14:34:49.873Z,21.21
2018-11-01T14:37:15.863Z,21.21
2018-11-01T14:39:41.893Z,21.24
2018-11-01T14:42:07.904Z,21.24
2018-11-01T14:44:34.046Z,21.22
2018-11-01T14:47:02.042Z,21.21
2018-11-01T14:49:28.204Z,21.22
2018-11-01T14:51:54.444Z,21.26
2018-11-01T14:54:21.273Z,21.27
2018-11-01T14:56:47.335Z,21.28
2018-11-01T14:59:13.768Z,21.28
2018-11-01T15:01:38.212Z,21.26
2018-11-01T15:04:04.210Z,21.23
2018-11-01T15:06:30.236Z,21.23
2018-11-01T15:08:57.562Z,21.18
2018-11-01T15:11:25.427Z,21.13
2018-11-01T15:13:53.809Z,21.16
2018-11-01T15:16:21.842Z,21.18
2018-11-01T15:18:47.861Z,21.16
2018-11-01T15:21:13.849Z,21.18
2018-11-01T15:23:39.856Z,21.17
2018-11-01T15:26:05.925Z,21.15
2018-11-01T15:28:31.918Z,21.16
2018-11-01T15:30:57.920Z,21.18
2018-11-01T15:33:24.007Z,21.19
2018-11-01T15:35:49.872Z,21.19
2018-11-01T15:38:16.541Z,21.18
2018-11-01T15:40:45.659Z,21.19
2018-11-01T15:43:11.691Z,21.21
2018-11-01T15:45:37.659Z,21.22
2018-11-01T15:48:03.632Z,21.18
2018-11-01T15:50:29.618Z,21.15
2018-11-01T15:52:56.253Z,21.11
2018-11-01T15:55:22.219Z,21.10
2018-11-01T15:57:50.294Z,21.07
2018-11-01T16:00:16.268Z,21.04
2018-11-01T16:02:42.303Z,21.04
2018-11-01T16:05:08.257Z,21.02
2018-11-01T16:07:39.387Z,21.01
2018-11-01T16:10:05.471Z,20.95
2018-11-01T16:12:31.375Z,20.95
2018-11-01T16:14:57.357Z,20.97
2018-11-01T16:17:23.328Z,20.97
2018-11-01T16:19:49.442Z,20.91
2018-11-01T16:22:15.464Z,20.88
2018-11-01T16:24:41.424Z,20.86
2018-11-01T16:27:07.429Z,20.84
2018-11-01T16:29:33.418Z,20.86
2018-11-01T16:31:59.434Z,20.84
2018-11-01T16:34:25.405Z,20.82
2018-11-01T16:36:51.449Z,20.82
2018-11-01T16:39:17.416Z,20.85
2018-11-01T16:41:43.367Z,20.87
2018-11-01T16:44:09.376Z,20.97
2018-11-01T16:46:35.368Z,21.02
2018-11-01T16:49:01.314Z,20.99
2018-11-01T16:51:27.325Z,20.94
2018-11-01T16:53:53.277Z,20.88
2018-11-01T16:56:19.265Z,20.83
2018-11-01T16:58:45.262Z,20.71
2018-11-01T17:01:11.361Z,20.65
2018-11-01T17:03:37.358Z,20.62
2018-11-01T17:06:03.337Z,20.59
2018-11-01T17:08:30.335Z,20.51
2018-11-01T17:10:57.245Z,20.52
2018-11-01T17:13:23.303Z,19.87
2018-11-01T17:15:49.283Z,20.44
2018-11-01T17:18:15.302Z,20.40
2018-11-01T17:20:41.417Z,20.37
2018-11-01T17:23:07.442Z,20.36
2018-11-01T17:25:33.494Z,20.38
2018-11-01T17:27:59.585Z,20.36
2018-11-01T17:30:25.679Z,20.44
2018-11-01T17:35:25.644Z,20.32
2018-11-01T17:37:51.665Z,20.28
2018-11-01T17:40:17.706Z,20.21
2018-11-01T17:42:44.330Z,20.20
2018-11-01T17:45:10.397Z,20.20
2018-11-01T17:47:36.314Z,20.21
2018-11-01T17:50:02.287Z,20.23
2018-11-01T17:52:28.299Z,20.22
2018-11-01T17:54:58.183Z,20.18
2018-11-01T17:57:24.252Z,20.21
2018-11-01T17:59:50.249Z,20.26
2018-11-01T18:02:17.390Z,20.29
2018-11-01T18:04:43.288Z,20.29
2018-11-01T18:07:09.284Z,20.31
2018-11-01T18:09:35.269Z,20.32
2018-11-01T18:12:01.237Z,20.34
2018-11-01T18:14:27.266Z,20.32
2018-11-01T18:16:53.284Z,20.30
2018-11-01T18:19:19.510Z,20.21
2018-11-01T18:21:45.503Z,20.20
2018-11-01T18:24:11.458Z,20.22
2018-11-01T18:26:37.457Z,20.32
2018-11-01T18:29:03.597Z,20.41
2018-11-01T18:31:29.601Z,20.42
2018-11-01T18:33:55.574Z,20.42
2018-11-01T18:36:21.620Z,20.44
2018-11-01T18:38:47.574Z,20.46
2018-11-01T18:41:13.609Z,20.47
2018-11-01T18:43:39.619Z,20.46
2018-11-01T18:46:05.586Z,20.45
2018-11-01T18:48:31.633Z,20.44
2018-11-01T18:50:57.574Z,20.43
2018-11-01T18:53:23.693Z,20.41
2018-11-01T18:55:49.800Z,20.33
2018-11-01T18:58:15.810Z,20.30
2018-11-01T19:00:42.907Z,20.24
2018-11-01T19:05:42.321Z,20.17
2018-11-01T19:08:08.301Z,20.12
2018-11-01T19:10:34.285Z,20.15
2018-11-01T19:13:00.294Z,20.07
2018-11-01T19:15:26.274Z,20.04
2018-11-01T19:17:52.270Z,20.07
2018-11-01T19:20:18.253Z,20.07
2018-11-01T19:22:44.368Z,20.04
2018-11-01T19:25:10.391Z,20.04
2018-11-01T19:27:36.572Z,20.03
2018-11-01T19:30:02.747Z,20.05
2018-11-01T19:32:28.708Z,20.04
2018-11-01T19:34:54.747Z,20.03
2018-11-01T19:37:20.734Z,20.06
2018-11-01T19:39:46.726Z,20.11
2018-11-01T19:42:12.720Z,20.07
2018-11-01T19:44:38.755Z,20.07
2018-11-01T19:47:04.758Z,20.07
2018-11-01T19:49:30.806Z,20.08
2018-11-01T19:51:56.717Z,20.07
2018-11-01T19:54:23.450Z,20.01
2018-11-01T19:56:49.381Z,20.00
2018-11-01T19:59:15.530Z,19.90
2018-11-01T20:01:41.505Z,19.91
2018-11-01T20:04:07.485Z,19.91
2018-11-01T20:06:33.458Z,19.75
2018-11-01T20:08:59.595Z,19.67
2018-11-01T20:11:25.443Z,19.55
2018-11-01T20:13:52.006Z,19.47
2018-11-01T20:16:17.995Z,19.39
2018-11-01T20:18:44.056Z,19.33
2018-11-01T20:21:10.034Z,19.26
2018-11-01T20:23:36.001Z,19.20
2018-11-01T20:26:01.974Z,19.17
2018-11-01T20:28:29.033Z,19.06
2018-11-01T20:30:54.989Z,19.02
2018-11-01T20:33:20.973Z,19.08
2018-11-01T20:35:46.933Z,19.08
2018-11-01T20:38:12.992Z,19.01
2018-11-01T20:40:38.902Z,18.92
2018-11-01T20:43:04.869Z,18.84
2018-11-01T20:45:30.866Z,18.77
2018-11-01T20:47:56.851Z,18.74
2018-11-01T20:50:22.989Z,18.73
2018-11-01T20:52:48.882Z,18.81
2018-11-01T20:55:14.871Z,18.78
2018-11-01T20:57:40.946Z,18.83
2018-11-01T21:00:06.933Z,18.81
2018-11-01T21:02:32.997Z,18.83
2018-11-01T21:04:59.093Z,18.82
2018-11-01T21:07:24.981Z,18.75
2018-11-01T21:09:50.952Z,18.66
2018-11-01T21:12:16.972Z,18.51
2018-11-01T21:14:42.972Z,18.48
2018-11-01T21:17:08.953Z,18.43
2018-11-01T21:19:34.917Z,18.37
2018-11-01T21:22:00.903Z,18.33
2018-11-01T21:24:26.889Z,18.29
2018-11-01T21:26:52.870Z,18.26
2018-11-01T21:29:18.912Z,18.20
2018-11-01T21:31:44.843Z,18.20
2018-11-01T21:34:12.114Z,18.23
2018-11-01T21:36:39.172Z,18.24
2018-11-01T21:39:05.137Z,18.12
2018-11-01T21:41:31.117Z,18.04
2018-11-01T21:43:57.148Z,18.02
2018-11-01T21:46:25.194Z,18.03
2018-11-01T21:48:51.166Z,18.02
2018-11-01T21:51:17.210Z,18.12
2018-11-01T21:53:43.311Z,18.12
2018-11-01T21:56:09.180Z,18.13
2018-11-01T21:58:35.151Z,18.10
2018-11-01T22:01:01.116Z,18.15
2018-11-01T22:03:27.078Z,18.05
2018-11-01T22:05:53.044Z,18.04
2018-11-01T22:08:19.087Z,18.00
2018-11-01T22:10:45.062Z,17.98
2018-11-01T22:13:11.001Z,17.96
2018-11-01T22:15:36.978Z,17.96
2018-11-01T22:18:03.018Z,17.98
2018-11-01T22:20:28.987Z,17.97
2018-11-01T22:22:54.962Z,17.92
2018-11-01T22:25:20.937Z,17.87
2018-11-01T22:27:46.942Z,17.83
2018-11-01T22:30:12.916Z,17.78
2018-11-01T22:32:38.934Z,17.72
2018-11-01T22:35:04.896Z,17.55
2018-11-01T22:37:30.857Z,17.50
2018-11-01T22:39:56.873Z,17.44
2018-11-01T22:42:22.847Z,17.49
2018-11-01T22:44:48.848Z,17.50
2018-11-01T22:47:14.870Z,17.48
2018-11-01T22:49:40.823Z,17.44
2018-11-01T22:52:06.789Z,17.48
2018-11-01T22:54:32.742Z,17.52
2018-11-01T22:56:58.755Z,17.50
2018-11-01T22:59:24.725Z,17.57
2018-11-01T23:01:50.719Z,17.56
2018-11-01T23:04:16.693Z,17.48
2018-11-01T23:06:42.661Z,17.38
2018-11-01T23:09:08.672Z,17.34
2018-11-01T23:11:34.647Z,17.34
2018-11-01T23:14:00.645Z,17.27
2018-11-01T23:16:26.595Z,17.22
2018-11-01T23:18:52.591Z,17.20
2018-11-01T23:21:18.576Z,17.15
2018-11-01T23:23:44.528Z,17.08
2018-11-01T23:26:10.496Z,17.06
2018-11-01T23:28:36.453Z,17.01
2018-11-01T23:31:02.413Z,16.92
2018-11-01T23:33:28.450Z,16.84
2018-11-01T23:35:54.456Z,16.78
2018-11-01T23:38:20.416Z,16.71
2018-11-01T23:40:46.398Z,16.72
2018-11-01T23:43:12.383Z,16.61
2018-11-01T23:45:38.328Z,16.55
2018-11-01T23:48:04.334Z,16.60
2018-11-01T23:50:30.325Z,16.65
2018-11-01T23:52:56.294Z,16.66
2018-11-01T23:55:22.274Z,16.71
2018-11-01T23:57:48.242Z,16.67
